sensor_id;sensor_type;location;lat;lon;timestamp;temperature;humidity
49441;DHT22;35317;51.978;6.296;2022-12-07T00:02:46;5.10;99.90
49441;DHT22;35317;51.978;6.296;2022-12-07T00:07:47;5.00;99.90
49441;DHT22;35317;51.978;6.296;2022-12-07T00:12:48;5.10;99.90
49441;DHT22;35317;51.978;6.296;2022-12-07T00:17:48;5.00;99.90
49441;DHT22;35317;51.978;6.296;2022-12-07T00:22:49;5.00;99.90
49441;DHT22;35317;51.978;6.296;2022-12-07T00:27:51;5.00;99.90
49441;DHT22;35317;51.978;6.296;2022-12-07T00:32:53;4.90;99.90
49441;DHT22;35317;51.978;6.296;2022-12-07T00:37:53;4.80;99.90
49441;DHT22;35317;51.978;6.296;2022-12-07T00:42:54;4.80;99.90
49441;DHT22;35317;51.978;6.296;2022-12-07T00:47:55;4.60;99.90
49441;DHT22;35317;51.978;6.296;2022-12-07T00:52:55;4.50;99.90
49441;DHT22;35317;51.978;6.296;2022-12-07T00:57:56;4.40;99.90
49441;DHT22;35317;51.978;6.296;2022-12-07T01:02:57;4.40;99.90
49441;DHT22;35317;51.978;6.296;2022-12-07T01:07:58;4.30;99.90
49441;DHT22;35317;51.978;6.296;2022-12-07T01:12:59;4.30;99.90
49441;DHT22;35317;51.978;6.296;2022-12-07T01:17:59;4.20;99.90
49441;DHT22;35317;51.978;6.296;2022-12-07T01:23:00;4.20;99.90
49441;DHT22;35317;51.978;6.296;2022-12-07T01:28:01;4.10;99.90
49441;DHT22;35317;51.978;6.296;2022-12-07T01:33:02;4.00;99.90
49441;DHT22;35317;51.978;6.296;2022-12-07T01:38:02;4.00;99.90
49441;DHT22;35317;51.978;6.296;2022-12-07T01:43:11;4.10;99.90
49441;DHT22;35317;51.978;6.296;2022-12-07T01:48:18;4.10;99.90
49441;DHT22;35317;51.978;6.296;2022-12-07T01:53:26;4.00;99.90
49441;DHT22;35317;51.978;6.296;2022-12-07T01:58:29;4.00;99.90
49441;DHT22;35317;51.978;6.296;2022-12-07T02:03:39;3.90;99.90
49441;DHT22;35317;51.978;6.296;2022-12-07T02:08:41;3.90;99.90
49441;DHT22;35317;51.978;6.296;2022-12-07T02:13:43;3.90;99.90
49441;DHT22;35317;51.978;6.296;2022-12-07T02:24:58;3.80;99.90
49441;DHT22;35317;51.978;6.296;2022-12-07T02:30:20;3.80;99.90
49441;DHT22;35317;51.978;6.296;2022-12-07T02:35:39;3.80;99.90
49441;DHT22;35317;51.978;6.296;2022-12-07T02:40:54;3.80;99.90
49441;DHT22;35317;51.978;6.296;2022-12-07T02:46:03;3.80;99.90
49441;DHT22;35317;51.978;6.296;2022-12-07T02:51:09;3.70;99.90
49441;DHT22;35317;51.978;6.296;2022-12-07T03:18:28;3.60;99.90
49441;DHT22;35317;51.978;6.296;2022-12-07T03:23:32;3.60;99.90
49441;DHT22;35317;51.978;6.296;2022-12-07T03:28:38;3.70;99.90
49441;DHT22;35317;51.978;6.296;2022-12-07T03:34:14;3.70;99.90
49441;DHT22;35317;51.978;6.296;2022-12-07T03:39:24;3.70;99.90
49441;DHT22;35317;51.978;6.296;2022-12-07T03:44:31;3.80;99.90
49441;DHT22;35317;51.978;6.296;2022-12-07T03:49:37;3.80;99.90
49441;DHT22;35317;51.978;6.296;2022-12-07T03:54:49;3.80;99.90
49441;DHT22;35317;51.978;6.296;2022-12-07T03:59:55;3.90;99.90
49441;DHT22;35317;51.978;6.296;2022-12-07T04:04:56;3.90;99.90
49441;DHT22;35317;51.978;6.296;2022-12-07T04:09:57;4.00;99.90
49441;DHT22;35317;51.978;6.296;2022-12-07T04:14:58;4.00;99.90
49441;DHT22;35317;51.978;6.296;2022-12-07T04:19:58;4.10;99.90
49441;DHT22;35317;51.978;6.296;2022-12-07T04:24:59;4.20;99.90
49441;DHT22;35317;51.978;6.296;2022-12-07T04:30:00;4.10;99.90
49441;DHT22;35317;51.978;6.296;2022-12-07T04:35:01;4.00;99.90
49441;DHT22;35317;51.978;6.296;2022-12-07T04:40:01;3.90;99.90
49441;DHT22;35317;51.978;6.296;2022-12-07T04:45:03;3.90;99.90
49441;DHT22;35317;51.978;6.296;2022-12-07T04:50:04;3.80;99.90
49441;DHT22;35317;51.978;6.296;2022-12-07T04:55:06;3.80;99.90
49441;DHT22;35317;51.978;6.296;2022-12-07T05:00:07;3.80;99.90
49441;DHT22;35317;51.978;6.296;2022-12-07T05:05:08;3.90;99.90
49441;DHT22;35317;51.978;6.296;2022-12-07T05:10:09;4.00;99.90
49441;DHT22;35317;51.978;6.296;2022-12-07T05:15:10;3.90;99.90
49441;DHT22;35317;51.978;6.296;2022-12-07T05:20:11;3.80;99.90
49441;DHT22;35317;51.978;6.296;2022-12-07T05:25:12;3.70;99.90
49441;DHT22;35317;51.978;6.296;2022-12-07T05:30:13;3.60;99.90
49441;DHT22;35317;51.978;6.296;2022-12-07T05:35:14;3.40;99.90
49441;DHT22;35317;51.978;6.296;2022-12-07T05:40:15;3.40;99.90
49441;DHT22;35317;51.978;6.296;2022-12-07T05:45:16;3.40;99.90
49441;DHT22;35317;51.978;6.296;2022-12-07T05:50:17;3.40;99.90
49441;DHT22;35317;51.978;6.296;2022-12-07T05:55:17;3.40;99.90
49441;DHT22;35317;51.978;6.296;2022-12-07T06:00:18;3.50;99.90
49441;DHT22;35317;51.978;6.296;2022-12-07T06:05:19;3.50;99.90
49441;DHT22;35317;51.978;6.296;2022-12-07T06:10:20;3.60;99.90
49441;DHT22;35317;51.978;6.296;2022-12-07T06:15:21;3.70;99.90
49441;DHT22;35317;51.978;6.296;2022-12-07T06:20:23;3.70;99.90
49441;DHT22;35317;51.978;6.296;2022-12-07T06:25:24;3.70;99.90
49441;DHT22;35317;51.978;6.296;2022-12-07T06:30:24;3.70;99.90
49441;DHT22;35317;51.978;6.296;2022-12-07T06:35:25;3.70;99.90
49441;DHT22;35317;51.978;6.296;2022-12-07T06:40:26;3.70;99.90
49441;DHT22;35317;51.978;6.296;2022-12-07T06:45:26;3.60;99.90
49441;DHT22;35317;51.978;6.296;2022-12-07T06:50:27;3.70;99.90
49441;DHT22;35317;51.978;6.296;2022-12-07T06:55:28;3.70;99.90
49441;DHT22;35317;51.978;6.296;2022-12-07T07:00:29;3.70;99.90
49441;DHT22;35317;51.978;6.296;2022-12-07T07:05:30;3.70;99.90
49441;DHT22;35317;51.978;6.296;2022-12-07T07:10:31;3.60;99.90
49441;DHT22;35317;51.978;6.296;2022-12-07T07:15:32;3.60;99.90
49441;DHT22;35317;51.978;6.296;2022-12-07T07:20:33;3.60;99.90
49441;DHT22;35317;51.978;6.296;2022-12-07T07:25:35;3.50;99.90
49441;DHT22;35317;51.978;6.296;2022-12-07T07:30:36;3.50;99.90
49441;DHT22;35317;51.978;6.296;2022-12-07T07:35:37;3.50;99.90
49441;DHT22;35317;51.978;6.296;2022-12-07T07:40:38;3.40;99.90
49441;DHT22;35317;51.978;6.296;2022-12-07T07:45:38;3.40;99.90
49441;DHT22;35317;51.978;6.296;2022-12-07T07:50:39;3.30;99.90
49441;DHT22;35317;51.978;6.296;2022-12-07T07:55:40;3.30;99.90
49441;DHT22;35317;51.978;6.296;2022-12-07T08:00:40;3.20;99.90
49441;DHT22;35317;51.978;6.296;2022-12-07T08:05:41;3.20;99.90
49441;DHT22;35317;51.978;6.296;2022-12-07T08:10:42;3.20;99.90
49441;DHT22;35317;51.978;6.296;2022-12-07T08:15:45;3.30;99.90
49441;DHT22;35317;51.978;6.296;2022-12-07T08:20:47;3.30;99.90
49441;DHT22;35317;51.978;6.296;2022-12-07T08:25:48;3.30;99.90
49441;DHT22;35317;51.978;6.296;2022-12-07T08:30:49;3.40;99.90
49441;DHT22;35317;51.978;6.296;2022-12-07T08:35:49;3.50;99.90
49441;DHT22;35317;51.978;6.296;2022-12-07T08:40:57;3.70;99.90
49441;DHT22;35317;51.978;6.296;2022-12-07T08:46:12;3.80;99.90
49441;DHT22;35317;51.978;6.296;2022-12-07T08:51:18;3.90;99.90
49441;DHT22;35317;51.978;6.296;2022-12-07T08:56:19;4.10;99.90
49441;DHT22;35317;51.978;6.296;2022-12-07T09:01:21;4.20;99.90
49441;DHT22;35317;51.978;6.296;2022-12-07T09:06:23;4.20;99.90
49441;DHT22;35317;51.978;6.296;2022-12-07T09:11:24;4.30;99.90
49441;DHT22;35317;51.978;6.296;2022-12-07T09:16:24;4.30;99.90
49441;DHT22;35317;51.978;6.296;2022-12-07T09:21:25;4.30;99.90
49441;DHT22;35317;51.978;6.296;2022-12-07T09:26:26;4.40;99.90
49441;DHT22;35317;51.978;6.296;2022-12-07T09:31:26;4.40;99.90
49441;DHT22;35317;51.978;6.296;2022-12-07T09:36:28;4.50;99.90
49441;DHT22;35317;51.978;6.296;2022-12-07T09:41:30;4.70;99.90
49441;DHT22;35317;51.978;6.296;2022-12-07T09:46:36;4.90;99.90
49441;DHT22;35317;51.978;6.296;2022-12-07T09:51:39;5.00;99.90
49441;DHT22;35317;51.978;6.296;2022-12-07T09:56:40;5.30;99.90
49441;DHT22;35317;51.978;6.296;2022-12-07T10:01:42;5.40;99.90
49441;DHT22;35317;51.978;6.296;2022-12-07T10:06:43;5.60;99.90
49441;DHT22;35317;51.978;6.296;2022-12-07T10:12:02;5.60;99.90
49441;DHT22;35317;51.978;6.296;2022-12-07T10:17:28;5.60;99.90
49441;DHT22;35317;51.978;6.296;2022-12-07T10:22:37;5.70;99.90
49441;DHT22;35317;51.978;6.296;2022-12-07T10:27:38;5.80;99.90
49441;DHT22;35317;51.978;6.296;2022-12-07T10:32:38;5.80;99.90
49441;DHT22;35317;51.978;6.296;2022-12-07T10:37:40;5.80;99.90
49441;DHT22;35317;51.978;6.296;2022-12-07T10:42:41;5.90;99.90
49441;DHT22;35317;51.978;6.296;2022-12-07T10:48:04;6.00;99.90
49441;DHT22;35317;51.978;6.296;2022-12-07T11:04:43;6.40;99.90
49441;DHT22;35317;51.978;6.296;2022-12-07T11:26:09;6.80;99.90
49441;DHT22;35317;51.978;6.296;2022-12-07T11:31:28;6.70;99.90
49441;DHT22;35317;51.978;6.296;2022-12-07T11:36:43;6.70;99.90
49441;DHT22;35317;51.978;6.296;2022-12-07T11:41:51;6.70;99.90
49441;DHT22;35317;51.978;6.296;2022-12-07T11:46:57;6.70;99.90
49441;DHT22;35317;51.978;6.296;2022-12-07T11:52:02;6.80;99.90
49441;DHT22;35317;51.978;6.296;2022-12-07T11:57:11;6.70;99.90
49441;DHT22;35317;51.978;6.296;2022-12-07T12:02:23;6.70;99.90
49441;DHT22;35317;51.978;6.296;2022-12-07T12:07:27;6.70;99.90
49441;DHT22;35317;51.978;6.296;2022-12-07T12:12:57;6.60;99.90
49441;DHT22;35317;51.978;6.296;2022-12-07T12:29:23;7.00;99.90
49441;DHT22;35317;51.978;6.296;2022-12-07T12:34:41;7.30;99.90
49441;DHT22;35317;51.978;6.296;2022-12-07T12:50:34;7.30;99.90
49441;DHT22;35317;51.978;6.296;2022-12-07T13:00:43;7.30;99.90
49441;DHT22;35317;51.978;6.296;2022-12-07T13:05:44;7.30;99.90
49441;DHT22;35317;51.978;6.296;2022-12-07T13:10:46;7.50;99.90
49441;DHT22;35317;51.978;6.296;2022-12-07T13:26:20;7.80;99.20
49441;DHT22;35317;51.978;6.296;2022-12-07T13:36:38;7.80;98.70
49441;DHT22;35317;51.978;6.296;2022-12-07T13:41:41;7.80;98.80
49441;DHT22;35317;51.978;6.296;2022-12-07T13:47:01;7.80;98.70
49441;DHT22;35317;51.978;6.296;2022-12-07T13:52:15;7.90;98.60
49441;DHT22;35317;51.978;6.296;2022-12-07T13:57:21;8.00;98.50
49441;DHT22;35317;51.978;6.296;2022-12-07T14:07:28;8.20;97.60
49441;DHT22;35317;51.978;6.296;2022-12-07T14:12:31;8.10;97.40
49441;DHT22;35317;51.978;6.296;2022-12-07T14:17:33;8.00;97.20
49441;DHT22;35317;51.978;6.296;2022-12-07T14:22:38;7.80;97.00
49441;DHT22;35317;51.978;6.296;2022-12-07T14:27:39;7.70;97.00
49441;DHT22;35317;51.978;6.296;2022-12-07T14:32:54;7.60;97.20
49441;DHT22;35317;51.978;6.296;2022-12-07T14:37:58;7.50;97.30
49441;DHT22;35317;51.978;6.296;2022-12-07T14:43:08;7.50;97.40
49441;DHT22;35317;51.978;6.296;2022-12-07T14:48:14;7.40;97.60
49441;DHT22;35317;51.978;6.296;2022-12-07T14:53:17;7.30;97.70
49441;DHT22;35317;51.978;6.296;2022-12-07T14:58:19;7.10;97.70
49441;DHT22;35317;51.978;6.296;2022-12-07T15:03:20;6.90;97.90
49441;DHT22;35317;51.978;6.296;2022-12-07T15:08:21;6.60;98.00
49441;DHT22;35317;51.978;6.296;2022-12-07T15:13:22;6.40;98.30
49441;DHT22;35317;51.978;6.296;2022-12-07T15:18:41;6.30;98.60
49441;DHT22;35317;51.978;6.296;2022-12-07T15:23:43;6.30;98.70
49441;DHT22;35317;51.978;6.296;2022-12-07T15:28:46;6.10;98.60
49441;DHT22;35317;51.978;6.296;2022-12-07T15:33:47;6.10;98.70
49441;DHT22;35317;51.978;6.296;2022-12-07T15:38:48;6.00;98.80
49441;DHT22;35317;51.978;6.296;2022-12-07T15:43:49;5.90;98.90
49441;DHT22;35317;51.978;6.296;2022-12-07T15:49:15;5.80;99.00
49441;DHT22;35317;51.978;6.296;2022-12-07T15:54:28;5.70;99.20
49441;DHT22;35317;51.978;6.296;2022-12-07T15:59:29;5.70;99.30
49441;DHT22;35317;51.978;6.296;2022-12-07T16:04:30;5.60;99.50
49441;DHT22;35317;51.978;6.296;2022-12-07T16:09:31;5.50;99.60
49441;DHT22;35317;51.978;6.296;2022-12-07T16:14:32;5.50;99.80
49441;DHT22;35317;51.978;6.296;2022-12-07T16:19:34;5.40;99.90
49441;DHT22;35317;51.978;6.296;2022-12-07T16:24:36;5.40;99.90
49441;DHT22;35317;51.978;6.296;2022-12-07T16:29:37;5.40;99.90
49441;DHT22;35317;51.978;6.296;2022-12-07T16:34:39;5.40;99.90
49441;DHT22;35317;51.978;6.296;2022-12-07T16:39:40;5.40;99.90
49441;DHT22;35317;51.978;6.296;2022-12-07T16:44:40;5.50;99.90
49441;DHT22;35317;51.978;6.296;2022-12-07T16:49:42;5.50;99.90
49441;DHT22;35317;51.978;6.296;2022-12-07T16:54:43;5.60;99.90
49441;DHT22;35317;51.978;6.296;2022-12-07T16:59:45;5.60;99.90
49441;DHT22;35317;51.978;6.296;2022-12-07T17:04:45;5.50;99.90
49441;DHT22;35317;51.978;6.296;2022-12-07T17:09:46;5.50;99.90
49441;DHT22;35317;51.978;6.296;2022-12-07T17:14:47;5.40;99.90
49441;DHT22;35317;51.978;6.296;2022-12-07T17:20:07;5.30;99.90
49441;DHT22;35317;51.978;6.296;2022-12-07T17:25:07;5.20;99.90
49441;DHT22;35317;51.978;6.296;2022-12-07T17:30:11;5.10;99.90
49441;DHT22;35317;51.978;6.296;2022-12-07T17:35:13;5.00;99.90
49441;DHT22;35317;51.978;6.296;2022-12-07T17:40:14;5.00;99.90
49441;DHT22;35317;51.978;6.296;2022-12-07T17:45:15;4.90;99.90
49441;DHT22;35317;51.978;6.296;2022-12-07T17:50:16;4.80;99.90
49441;DHT22;35317;51.978;6.296;2022-12-07T17:55:38;4.80;99.90
49441;DHT22;35317;51.978;6.296;2022-12-07T18:00:39;4.80;99.90
49441;DHT22;35317;51.978;6.296;2022-12-07T18:05:42;4.70;99.90
49441;DHT22;35317;51.978;6.296;2022-12-07T18:10:44;4.70;99.90
49441;DHT22;35317;51.978;6.296;2022-12-07T18:15:45;4.60;99.90
49441;DHT22;35317;51.978;6.296;2022-12-07T18:20:46;4.60;99.90
49441;DHT22;35317;51.978;6.296;2022-12-07T18:25:48;4.60;99.90
49441;DHT22;35317;51.978;6.296;2022-12-07T18:30:49;4.60;99.90
49441;DHT22;35317;51.978;6.296;2022-12-07T18:35:52;4.60;99.90
49441;DHT22;35317;51.978;6.296;2022-12-07T18:40:53;4.70;99.90
49441;DHT22;35317;51.978;6.296;2022-12-07T18:45:54;4.70;99.90
49441;DHT22;35317;51.978;6.296;2022-12-07T18:51:01;4.60;99.90
49441;DHT22;35317;51.978;6.296;2022-12-07T18:56:28;4.70;99.90
49441;DHT22;35317;51.978;6.296;2022-12-07T19:01:31;4.70;99.90
49441;DHT22;35317;51.978;6.296;2022-12-07T19:06:32;4.70;99.90
49441;DHT22;35317;51.978;6.296;2022-12-07T19:11:33;4.70;99.90
49441;DHT22;35317;51.978;6.296;2022-12-07T19:16:51;4.70;99.90
49441;DHT22;35317;51.978;6.296;2022-12-07T19:21:54;4.80;99.90
49441;DHT22;35317;51.978;6.296;2022-12-07T19:26:55;4.80;99.90
49441;DHT22;35317;51.978;6.296;2022-12-07T19:31:57;4.80;99.90
49441;DHT22;35317;51.978;6.296;2022-12-07T19:36:59;4.80;99.90
49441;DHT22;35317;51.978;6.296;2022-12-07T19:41:59;4.80;99.90
49441;DHT22;35317;51.978;6.296;2022-12-07T19:47:02;4.80;99.90
49441;DHT22;35317;51.978;6.296;2022-12-07T19:52:06;4.80;99.90
49441;DHT22;35317;51.978;6.296;2022-12-07T19:57:07;4.90;99.90
49441;DHT22;35317;51.978;6.296;2022-12-07T20:02:14;4.90;99.90
49441;DHT22;35317;51.978;6.296;2022-12-07T20:07:15;4.90;99.90
49441;DHT22;35317;51.978;6.296;2022-12-07T20:12:16;4.90;99.90
49441;DHT22;35317;51.978;6.296;2022-12-07T20:17:35;4.90;99.90
49441;DHT22;35317;51.978;6.296;2022-12-07T20:22:36;4.90;99.90
49441;DHT22;35317;51.978;6.296;2022-12-07T20:27:37;4.90;99.90
49441;DHT22;35317;51.978;6.296;2022-12-07T20:32:38;4.90;99.90
49441;DHT22;35317;51.978;6.296;2022-12-07T20:37:38;4.90;99.90
49441;DHT22;35317;51.978;6.296;2022-12-07T20:42:39;4.90;99.90
49441;DHT22;35317;51.978;6.296;2022-12-07T20:47:40;4.90;99.90
49441;DHT22;35317;51.978;6.296;2022-12-07T20:52:41;4.90;99.90
49441;DHT22;35317;51.978;6.296;2022-12-07T20:57:41;4.80;99.90
49441;DHT22;35317;51.978;6.296;2022-12-07T21:02:42;4.80;99.90
49441;DHT22;35317;51.978;6.296;2022-12-07T21:07:43;4.80;99.90
49441;DHT22;35317;51.978;6.296;2022-12-07T21:12:45;4.80;99.90
49441;DHT22;35317;51.978;6.296;2022-12-07T21:17:46;4.80;99.90
49441;DHT22;35317;51.978;6.296;2022-12-07T21:22:47;4.80;99.90
49441;DHT22;35317;51.978;6.296;2022-12-07T21:27:47;4.80;99.90
49441;DHT22;35317;51.978;6.296;2022-12-07T21:32:48;4.80;99.90
49441;DHT22;35317;51.978;6.296;2022-12-07T21:37:49;4.80;99.90
49441;DHT22;35317;51.978;6.296;2022-12-07T21:42:52;4.80;99.90
49441;DHT22;35317;51.978;6.296;2022-12-07T21:47:53;4.80;99.90
49441;DHT22;35317;51.978;6.296;2022-12-07T21:52:54;4.80;99.90
49441;DHT22;35317;51.978;6.296;2022-12-07T21:57:54;4.80;99.90
49441;DHT22;35317;51.978;6.296;2022-12-07T22:02:55;4.80;99.90
49441;DHT22;35317;51.978;6.296;2022-12-07T22:07:56;4.80;99.90
49441;DHT22;35317;51.978;6.296;2022-12-07T22:12:57;4.70;99.90
49441;DHT22;35317;51.978;6.296;2022-12-07T22:17:59;4.70;99.90
49441;DHT22;35317;51.978;6.296;2022-12-07T22:23:00;4.60;99.90
49441;DHT22;35317;51.978;6.296;2022-12-07T22:28:01;4.60;99.90
49441;DHT22;35317;51.978;6.296;2022-12-07T22:33:02;4.60;99.90
49441;DHT22;35317;51.978;6.296;2022-12-07T22:38:02;4.60;99.90
49441;DHT22;35317;51.978;6.296;2022-12-07T22:43:03;4.60;99.90
49441;DHT22;35317;51.978;6.296;2022-12-07T22:48:05;4.60;99.90
49441;DHT22;35317;51.978;6.296;2022-12-07T22:53:06;4.60;99.90
49441;DHT22;35317;51.978;6.296;2022-12-07T22:58:07;4.60;99.90
49441;DHT22;35317;51.978;6.296;2022-12-07T23:03:08;4.60;99.90
49441;DHT22;35317;51.978;6.296;2022-12-07T23:08:09;4.50;99.90
49441;DHT22;35317;51.978;6.296;2022-12-07T23:13:12;4.50;99.90
49441;DHT22;35317;51.978;6.296;2022-12-07T23:18:31;4.40;99.90
49441;DHT22;35317;51.978;6.296;2022-12-07T23:23:32;4.40;99.90
49441;DHT22;35317;51.978;6.296;2022-12-07T23:28:34;4.30;99.90
49441;DHT22;35317;51.978;6.296;2022-12-07T23:33:35;4.20;99.90
49441;DHT22;35317;51.978;6.296;2022-12-07T23:38:37;4.10;99.90
49441;DHT22;35317;51.978;6.296;2022-12-07T23:43:38;4.00;99.90
49441;DHT22;35317;51.978;6.296;2022-12-07T23:48:40;4.00;99.90
49441;DHT22;35317;51.978;6.296;2022-12-07T23:53:43;3.90;99.90
49441;DHT22;35317;51.978;6.296;2022-12-07T23:58:46;3.90;99.90
